createdAt,value
2019-03-27T00:02:04.063Z,2.70
2019-03-27T00:04:31.148Z,2.37
2019-03-27T00:06:57.757Z,2.47
2019-03-27T00:09:24.181Z,2.10
2019-03-27T00:11:50.568Z,2.65
2019-03-27T00:14:17.091Z,2.87
2019-03-27T00:16:56.563Z,2.67
2019-03-27T00:19:23.370Z,2.85
2019-03-27T00:21:50.027Z,2.45
2019-03-27T00:24:16.588Z,1.92
2019-03-27T00:26:43.272Z,2.42
2019-03-27T00:29:09.930Z,2.02
2019-03-27T00:31:36.409Z,2.77
2019-03-27T00:34:02.892Z,2.20
2019-03-27T00:36:29.317Z,2.10
2019-03-27T00:38:55.777Z,2.30
2019-03-27T00:41:22.226Z,2.40
2019-03-27T00:43:48.837Z,2.27
2019-03-27T00:46:15.493Z,2.50
2019-03-27T00:48:42.180Z,2.30
2019-03-27T00:51:08.720Z,2.37
2019-03-27T00:53:35.270Z,2.35
2019-03-27T00:56:01.837Z,2.50
2019-03-27T00:58:28.503Z,2.20
2019-03-27T01:01:06.526Z,2.33
2019-03-27T01:03:33.209Z,2.20
2019-03-27T01:05:59.807Z,2.55
2019-03-27T01:08:26.562Z,2.02
2019-03-27T01:10:53.202Z,1.98
2019-03-27T01:13:19.744Z,1.92
2019-03-27T01:15:46.202Z,2.58
2019-03-27T01:18:12.849Z,2.62
2019-03-27T01:20:39.442Z,2.27
2019-03-27T01:23:06.013Z,2.35
2019-03-27T01:25:32.738Z,2.55
2019-03-27T01:27:59.117Z,2.33
2019-03-27T01:30:25.584Z,2.10
2019-03-27T01:32:52.268Z,2.30
2019-03-27T01:35:18.820Z,2.35
2019-03-27T01:37:45.434Z,2.20
2019-03-27T01:40:25.089Z,2.15
2019-03-27T01:42:51.666Z,2.17
2019-03-27T01:45:31.174Z,2.22
2019-03-27T01:47:57.729Z,2.20
2019-03-27T01:50:24.290Z,2.37
2019-03-27T01:52:50.967Z,2.40
2019-03-27T01:55:30.330Z,2.60
2019-03-27T01:57:56.795Z,2.35
2019-03-27T02:00:23.416Z,2.90
2019-03-27T02:02:49.995Z,2.33
2019-03-27T02:05:36.550Z,2.30
2019-03-27T02:08:03.136Z,2.60
2019-03-27T02:10:29.608Z,2.47
2019-03-27T02:12:56.197Z,2.75
2019-03-27T02:15:23.600Z,2.60
2019-03-27T02:17:50.295Z,2.50
2019-03-27T02:20:16.850Z,2.60
2019-03-27T02:22:43.332Z,2.75
2019-03-27T02:25:09.871Z,2.50
2019-03-27T02:27:37.601Z,2.62
2019-03-27T02:30:06.247Z,2.50
2019-03-27T02:32:33.996Z,2.62
2019-03-27T02:35:13.462Z,2.80
2019-03-27T02:37:40.058Z,2.83
2019-03-27T02:40:06.781Z,2.65
2019-03-27T02:42:33.234Z,2.25
2019-03-27T02:44:59.822Z,2.87
2019-03-27T02:47:26.372Z,2.60
2019-03-27T02:49:52.969Z,2.80
2019-03-27T02:52:39.354Z,2.60
2019-03-27T02:55:07.581Z,3.00
2019-03-27T02:57:53.921Z,2.87
2019-03-27T03:00:21.004Z,2.87
2019-03-27T03:02:47.674Z,3.10
2019-03-27T03:05:14.707Z,2.92
2019-03-27T03:07:41.053Z,2.92
2019-03-27T03:10:08.869Z,3.22
2019-03-27T03:12:35.280Z,2.83
2019-03-27T03:15:02.094Z,2.50
2019-03-27T03:17:28.749Z,3.15
2019-03-27T03:19:58.492Z,3.33
2019-03-27T03:22:24.881Z,3.10
2019-03-27T03:24:51.698Z,2.75
2019-03-27T03:27:18.388Z,3.25
2019-03-27T03:29:44.961Z,2.87
2019-03-27T03:32:11.349Z,2.72
2019-03-27T03:34:37.831Z,2.90
2019-03-27T03:37:04.425Z,3.08
2019-03-27T03:39:31.106Z,3.17
2019-03-27T03:41:57.800Z,3.00
2019-03-27T03:44:24.443Z,2.77
2019-03-27T03:46:59.610Z,2.30
2019-03-27T03:49:30.107Z,3.08
2019-03-27T03:51:57.119Z,3.42
2019-03-27T03:54:23.783Z,2.75
2019-03-27T03:56:52.114Z,3.22
2019-03-27T03:59:20.734Z,3.27
2019-03-27T04:01:51.025Z,3.00
2019-03-27T04:04:20.344Z,3.05
2019-03-27T04:06:46.992Z,3.15
2019-03-27T04:09:13.543Z,3.27
2019-03-27T04:11:40.239Z,3.08
2019-03-27T04:14:06.920Z,3.22
2019-03-27T04:16:46.784Z,3.27
2019-03-27T04:19:13.212Z,3.35
2019-03-27T04:21:39.629Z,3.12
2019-03-27T04:24:06.333Z,3.30
2019-03-27T04:26:33.687Z,3.27
2019-03-27T04:29:00.626Z,3.37
2019-03-27T04:31:27.188Z,2.92
2019-03-27T04:33:53.713Z,3.52
2019-03-27T04:36:39.999Z,3.52
2019-03-27T04:39:06.582Z,3.60
2019-03-27T04:41:33.227Z,3.35
2019-03-27T04:43:59.898Z,3.62
2019-03-27T04:46:26.446Z,3.17
2019-03-27T04:48:54.341Z,3.40
2019-03-27T04:51:20.815Z,3.65
2019-03-27T04:53:47.180Z,3.42
2019-03-27T04:56:13.891Z,3.70
2019-03-27T04:58:41.669Z,3.70
2019-03-27T05:01:08.170Z,3.77
2019-03-27T05:03:34.681Z,3.80
2019-03-27T05:06:01.295Z,3.75
2019-03-27T05:08:27.788Z,3.80
2019-03-27T05:10:54.445Z,3.35
2019-03-27T05:13:21.001Z,3.45
2019-03-27T05:16:07.442Z,3.35
2019-03-27T05:18:34.107Z,4.00
2019-03-27T05:21:00.752Z,3.47
2019-03-27T05:23:27.202Z,3.45
2019-03-27T05:25:53.880Z,4.45
2019-03-27T05:28:20.636Z,3.80
2019-03-27T05:30:47.199Z,3.40
2019-03-27T05:33:13.896Z,3.83
2019-03-27T05:35:40.511Z,3.45
2019-03-27T05:38:07.004Z,3.25
2019-03-27T05:40:33.584Z,3.45
2019-03-27T05:43:01.316Z,3.83
2019-03-27T05:45:40.816Z,4.00
2019-03-27T05:48:07.401Z,3.58
2019-03-27T05:50:34.024Z,3.55
2019-03-27T05:53:00.618Z,3.75
2019-03-27T05:55:27.154Z,3.30
2019-03-27T05:57:53.854Z,3.37
2019-03-27T06:00:21.661Z,3.25
2019-03-27T06:02:48.551Z,3.50
2019-03-27T06:05:15.390Z,3.87
2019-03-27T06:07:41.965Z,3.33
2019-03-27T06:10:08.819Z,3.87
2019-03-27T06:12:35.521Z,4.25
2019-03-27T06:15:02.909Z,3.08
2019-03-27T06:17:29.404Z,3.02
2019-03-27T06:19:55.942Z,3.62
2019-03-27T06:22:22.612Z,7.97
2019-03-27T06:24:49.236Z,4.25
2019-03-27T06:27:15.780Z,3.35
2019-03-27T06:29:42.481Z,3.75
2019-03-27T06:32:08.893Z,3.05
2019-03-27T06:34:35.426Z,3.45
2019-03-27T06:37:02.176Z,3.35
2019-03-27T06:39:28.719Z,3.77
2019-03-27T06:41:55.235Z,4.55
2019-03-27T06:44:21.831Z,4.00
2019-03-27T06:46:48.237Z,3.52
2019-03-27T06:49:14.829Z,3.75
2019-03-27T06:51:41.500Z,3.87
2019-03-27T06:54:08.034Z,3.92
2019-03-27T06:56:34.827Z,3.65
2019-03-27T06:59:01.325Z,3.95
2019-03-27T07:01:27.728Z,3.75
2019-03-27T07:03:54.267Z,3.75
2019-03-27T07:06:20.953Z,3.35
2019-03-27T07:08:47.502Z,3.75
2019-03-27T07:11:14.097Z,4.83
2019-03-27T07:13:40.834Z,8.00
2019-03-27T07:16:07.482Z,5.30
2019-03-27T07:18:39.997Z,4.28
2019-03-27T07:21:02.287Z,4.92
2019-03-27T07:23:28.684Z,4.35
2019-03-27T07:25:55.207Z,3.35
2019-03-27T07:28:21.752Z,3.95
2019-03-27T07:30:48.388Z,4.03
2019-03-27T07:33:14.828Z,3.55
2019-03-27T07:35:41.372Z,3.62
2019-03-27T07:38:07.828Z,3.30
2019-03-27T07:40:35.725Z,3.55
2019-03-27T07:43:02.416Z,11.55
2019-03-27T07:45:28.930Z,5.95
2019-03-27T07:47:55.306Z,3.70
2019-03-27T07:50:22.002Z,3.50
2019-03-27T07:52:48.645Z,3.22
2019-03-27T07:55:19.712Z,3.33
2019-03-27T07:57:43.739Z,3.60
2019-03-27T08:00:13.825Z,3.00
2019-03-27T08:02:40.380Z,7.83
2019-03-27T08:05:07.044Z,3.87
2019-03-27T08:07:33.717Z,4.33
2019-03-27T08:10:00.387Z,3.50
2019-03-27T08:12:46.956Z,3.30
2019-03-27T08:15:14.429Z,2.92
2019-03-27T08:17:40.971Z,3.17
2019-03-27T08:20:08.334Z,3.67
2019-03-27T08:22:34.997Z,3.67
2019-03-27T08:25:02.999Z,3.10
2019-03-27T08:27:29.677Z,3.65
2019-03-27T08:29:56.239Z,5.08
2019-03-27T08:32:37.570Z,3.58
2019-03-27T08:35:06.289Z,3.47
2019-03-27T08:37:32.867Z,3.17
2019-03-27T08:39:59.526Z,3.52
2019-03-27T08:42:26.121Z,3.47
2019-03-27T08:45:12.661Z,3.35
2019-03-27T08:47:39.224Z,4.80
2019-03-27T08:50:06.612Z,5.40
2019-03-27T08:52:33.117Z,3.98
2019-03-27T08:54:59.590Z,3.25
2019-03-27T08:57:26.169Z,3.83
2019-03-27T08:59:52.713Z,3.65
2019-03-27T09:02:19.220Z,3.50
2019-03-27T09:04:45.761Z,4.33
2019-03-27T09:07:12.233Z,3.90
2019-03-27T09:09:38.796Z,4.10
2019-03-27T09:12:05.422Z,3.72
2019-03-27T09:14:31.898Z,3.92
2019-03-27T09:16:58.398Z,4.53
2019-03-27T09:19:35.102Z,3.72
2019-03-27T09:21:53.134Z,3.50
2019-03-27T09:24:19.515Z,3.58
2019-03-27T09:26:46.039Z,3.65
2019-03-27T09:29:12.526Z,3.50
2019-03-27T09:31:45.231Z,3.70
2019-03-27T09:34:07.495Z,3.22
2019-03-27T09:36:34.072Z,3.42
2019-03-27T09:39:00.623Z,3.17
2019-03-27T09:41:27.048Z,3.10
2019-03-27T09:43:53.419Z,3.35
2019-03-27T09:46:20.019Z,3.47
2019-03-27T09:48:57.104Z,3.22
2019-03-27T09:51:23.507Z,3.17
2019-03-27T09:53:53.046Z,3.77
2019-03-27T09:56:19.630Z,3.00
2019-03-27T09:58:46.457Z,2.85
2019-03-27T10:01:13.144Z,3.40
2019-03-27T10:03:39.746Z,4.22
2019-03-27T10:06:06.241Z,3.50
2019-03-27T10:08:32.918Z,3.65
2019-03-27T10:10:59.664Z,3.20
2019-03-27T10:13:26.330Z,3.30
2019-03-27T10:16:12.828Z,3.35
2019-03-27T10:18:39.296Z,3.30
2019-03-27T10:21:05.867Z,3.52
2019-03-27T10:23:52.292Z,3.70
2019-03-27T10:26:18.998Z,4.10
2019-03-27T10:28:45.544Z,3.92
2019-03-27T10:31:12.038Z,3.87
2019-03-27T10:33:38.509Z,4.05
2019-03-27T10:36:24.917Z,3.75
2019-03-27T10:38:51.547Z,4.20
2019-03-27T10:41:18.114Z,4.20
2019-03-27T10:43:44.678Z,3.90
2019-03-27T10:46:11.366Z,4.33
2019-03-27T10:48:51.480Z,3.62
2019-03-27T10:51:06.424Z,4.45
2019-03-27T10:53:33.010Z,4.10
2019-03-27T10:55:59.576Z,3.90
2019-03-27T10:58:26.303Z,5.95
2019-03-27T11:00:52.788Z,5.20
2019-03-27T11:03:19.363Z,4.45
2019-03-27T11:05:45.884Z,5.28
2019-03-27T11:08:12.555Z,4.37
2019-03-27T11:10:40.570Z,4.28
2019-03-27T11:13:07.129Z,4.03
2019-03-27T11:15:33.775Z,4.58
2019-03-27T11:18:00.418Z,5.03
2019-03-27T11:20:31.178Z,5.47
2019-03-27T11:22:55.556Z,5.00
2019-03-27T11:25:22.163Z,4.67
2019-03-27T11:28:08.401Z,5.00
2019-03-27T11:30:36.509Z,4.87
2019-03-27T11:33:04.019Z,4.25
2019-03-27T11:35:30.540Z,5.10
2019-03-27T11:37:59.902Z,4.40
2019-03-27T11:40:27.742Z,4.62
2019-03-27T11:42:54.246Z,4.62
2019-03-27T11:45:21.032Z,4.85
2019-03-27T11:47:48.745Z,4.15
2019-03-27T11:50:15.311Z,4.12
2019-03-27T11:52:41.774Z,4.78
2019-03-27T11:55:08.910Z,3.92
2019-03-27T11:57:35.447Z,4.35
2019-03-27T12:00:04.747Z,4.20
2019-03-27T12:02:31.813Z,3.95
2019-03-27T12:05:11.281Z,4.67
2019-03-27T12:07:38.115Z,4.17
2019-03-27T12:10:05.381Z,4.35
2019-03-27T12:12:31.966Z,3.60
2019-03-27T12:14:58.501Z,4.28
2019-03-27T12:17:25.032Z,4.05
2019-03-27T12:19:51.601Z,4.25
2019-03-27T12:22:18.342Z,4.30
2019-03-27T12:24:44.993Z,4.08
2019-03-27T12:27:11.476Z,4.62
2019-03-27T12:29:37.931Z,3.80
2019-03-27T12:32:15.153Z,4.80
2019-03-27T12:34:41.895Z,4.53
2019-03-27T12:37:08.527Z,4.10
2019-03-27T12:39:35.052Z,4.45
2019-03-27T12:42:01.520Z,4.72
2019-03-27T12:44:28.215Z,3.85
2019-03-27T12:46:54.773Z,4.15
2019-03-27T12:49:21.373Z,4.00
2019-03-27T12:51:48.038Z,4.72
2019-03-27T12:54:14.726Z,4.80
2019-03-27T12:56:41.453Z,3.92
2019-03-27T12:59:07.933Z,4.62
2019-03-27T13:01:45.179Z,4.20
2019-03-27T13:04:11.870Z,3.98
2019-03-27T13:06:38.391Z,4.53
2019-03-27T13:09:06.171Z,3.72
2019-03-27T13:11:32.820Z,4.00
2019-03-27T13:13:59.326Z,4.08
2019-03-27T13:16:38.846Z,4.50
2019-03-27T13:19:05.477Z,4.83
2019-03-27T13:21:32.073Z,3.85
2019-03-27T13:23:58.688Z,4.05
2019-03-27T13:26:25.445Z,4.20
2019-03-27T13:28:51.820Z,5.42
2019-03-27T13:31:18.504Z,4.97
2019-03-27T13:33:45.299Z,4.20
2019-03-27T13:36:12.007Z,4.20
2019-03-27T13:38:38.624Z,4.83
2019-03-27T13:41:05.374Z,4.40
2019-03-27T13:43:31.969Z,4.10
2019-03-27T13:45:58.449Z,4.58
2019-03-27T13:48:24.776Z,3.55
2019-03-27T13:50:51.079Z,8.48
2019-03-27T13:53:17.687Z,5.22
2019-03-27T13:55:44.162Z,5.78
2019-03-27T13:58:10.684Z,5.33
2019-03-27T14:00:37.283Z,4.97
2019-03-27T14:03:04.314Z,4.70
2019-03-27T14:05:32.184Z,4.78
2019-03-27T14:07:59.013Z,4.72
2019-03-27T14:10:25.565Z,4.97
2019-03-27T14:12:52.098Z,3.87
2019-03-27T14:15:19.989Z,4.97
2019-03-27T14:17:46.526Z,6.45
2019-03-27T14:20:13.883Z,4.97
2019-03-27T14:22:40.957Z,5.25
2019-03-27T14:25:09.768Z,4.85
2019-03-27T14:27:56.438Z,5.20
2019-03-27T14:30:47.535Z,5.03
2019-03-27T14:33:14.432Z,5.37
2019-03-27T14:35:41.206Z,4.72
2019-03-27T14:38:07.682Z,6.20
2019-03-27T14:40:34.210Z,5.70
2019-03-27T14:43:00.854Z,5.03
2019-03-27T14:45:27.195Z,6.25
2019-03-27T14:48:04.756Z,5.65
2019-03-27T14:50:31.559Z,4.55
2019-03-27T14:52:58.246Z,4.85
2019-03-27T14:55:24.912Z,5.55
2019-03-27T14:57:52.630Z,5.70
2019-03-27T15:00:19.325Z,5.17
2019-03-27T15:02:45.911Z,5.00
2019-03-27T15:05:12.843Z,5.25
2019-03-27T15:07:39.468Z,4.97
2019-03-27T15:10:07.762Z,6.05
2019-03-27T15:12:35.484Z,5.12
2019-03-27T15:15:06.857Z,5.40
2019-03-27T15:17:33.471Z,4.95
2019-03-27T15:19:59.913Z,4.97
2019-03-27T15:22:26.529Z,5.22
2019-03-27T15:24:53.231Z,5.55
2019-03-27T15:27:19.848Z,6.55
2019-03-27T15:29:46.250Z,4.92
2019-03-27T15:32:12.702Z,4.72
2019-03-27T15:34:39.482Z,5.37
2019-03-27T15:37:06.392Z,4.50
2019-03-27T15:39:32.888Z,5.33
2019-03-27T15:41:59.608Z,5.33
2019-03-27T15:44:26.493Z,4.25
2019-03-27T15:46:53.210Z,5.10
2019-03-27T15:49:19.800Z,4.05
2019-03-27T15:51:46.293Z,4.55
2019-03-27T15:54:12.837Z,4.90
2019-03-27T15:56:39.506Z,5.10
2019-03-27T15:59:06.190Z,4.62
2019-03-27T16:01:32.830Z,4.53
2019-03-27T16:03:59.494Z,4.33
2019-03-27T16:06:26.061Z,4.20
2019-03-27T16:08:52.581Z,4.45
2019-03-27T16:11:19.290Z,4.97
2019-03-27T16:13:46.145Z,5.17
2019-03-27T16:16:12.693Z,5.72
2019-03-27T16:18:53.071Z,5.55
2019-03-27T16:21:19.834Z,4.37
2019-03-27T16:23:46.468Z,4.95
2019-03-27T16:26:13.065Z,5.47
2019-03-27T16:28:39.781Z,5.22
2019-03-27T16:31:06.406Z,4.85
2019-03-27T16:33:32.943Z,5.20
2019-03-27T16:36:10.231Z,5.47
2019-03-27T16:38:47.381Z,5.65
2019-03-27T16:41:14.030Z,6.50
2019-03-27T16:43:43.957Z,5.15
2019-03-27T16:46:09.048Z,5.10
2019-03-27T16:48:35.692Z,4.95
2019-03-27T16:51:02.350Z,5.53
2019-03-27T16:53:29.851Z,4.40
2019-03-27T16:55:56.840Z,4.75
2019-03-27T16:58:23.668Z,4.17
2019-03-27T17:00:50.341Z,5.72
2019-03-27T17:03:17.427Z,4.97
2019-03-27T17:05:54.018Z,4.40
2019-03-27T17:08:12.468Z,4.55
2019-03-27T17:10:39.125Z,4.62
2019-03-27T17:13:05.721Z,6.72
2019-03-27T17:15:32.399Z,5.55
2019-03-27T17:17:59.337Z,5.03
2019-03-27T17:20:26.010Z,6.05
2019-03-27T17:22:52.548Z,6.55
2019-03-27T17:25:19.207Z,6.62
2019-03-27T17:28:05.848Z,7.90
2019-03-27T17:30:32.621Z,9.83
2019-03-27T17:32:59.154Z,8.10
2019-03-27T17:35:25.822Z,6.60
2019-03-27T17:37:52.386Z,8.00
2019-03-27T17:40:19.137Z,7.12
2019-03-27T17:42:45.663Z,8.00
2019-03-27T17:45:12.400Z,6.62
2019-03-27T17:47:38.915Z,6.87
2019-03-27T17:50:06.862Z,6.75
2019-03-27T17:52:33.376Z,6.50
2019-03-27T17:54:59.889Z,7.45
2019-03-27T17:57:26.453Z,6.95
2019-03-27T17:59:52.843Z,5.33
2019-03-27T18:02:19.422Z,6.05
2019-03-27T18:04:46.116Z,11.88
2019-03-27T18:07:12.815Z,14.07
2019-03-27T18:09:45.481Z,16.85
2019-03-27T18:12:12.043Z,15.40
2019-03-27T18:14:38.634Z,12.40
2019-03-27T18:17:05.207Z,11.30
2019-03-27T18:19:31.841Z,10.18
2019-03-27T18:22:07.477Z,9.75
2019-03-27T18:24:40.842Z,12.80
2019-03-27T18:27:07.386Z,8.58
2019-03-27T18:29:33.797Z,8.98
2019-03-27T18:32:00.420Z,9.25
2019-03-27T18:34:27.055Z,8.58
2019-03-27T18:36:53.614Z,8.83
2019-03-27T18:39:39.993Z,8.48
2019-03-27T18:42:06.502Z,8.73
2019-03-27T18:44:32.958Z,8.63
2019-03-27T18:46:59.482Z,8.55
2019-03-27T18:49:32.497Z,9.00
2019-03-27T18:51:59.153Z,9.35
2019-03-27T18:54:27.206Z,9.33
2019-03-27T18:56:54.344Z,9.85
2019-03-27T18:59:21.004Z,8.00
2019-03-27T19:01:47.766Z,8.15
2019-03-27T19:04:14.531Z,10.20
2019-03-27T19:06:41.068Z,8.83
2019-03-27T19:09:10.683Z,8.38
2019-03-27T19:11:37.540Z,8.90
2019-03-27T19:14:04.198Z,11.65
2019-03-27T19:16:30.825Z,10.88
2019-03-27T19:18:57.412Z,10.45
2019-03-27T19:21:24.228Z,10.03
2019-03-27T19:23:51.787Z,9.45
2019-03-27T19:26:18.259Z,9.15
2019-03-27T19:28:44.781Z,9.20
2019-03-27T19:31:24.440Z,9.95
2019-03-27T19:33:51.007Z,10.55
2019-03-27T19:36:30.848Z,10.18
2019-03-27T19:38:57.458Z,8.58
2019-03-27T19:41:24.035Z,9.38
2019-03-27T19:43:50.631Z,9.80
2019-03-27T19:46:18.395Z,8.83
2019-03-27T19:48:45.067Z,8.53
2019-03-27T19:51:11.644Z,9.75
2019-03-27T19:53:38.388Z,9.40
2019-03-27T19:56:04.947Z,8.90
2019-03-27T19:58:51.318Z,9.43
2019-03-27T20:01:17.818Z,10.98
2019-03-27T20:03:44.542Z,10.72
2019-03-27T20:06:11.204Z,9.58
2019-03-27T20:08:37.901Z,9.13
2019-03-27T20:11:04.843Z,9.03
2019-03-27T20:13:31.416Z,9.10
2019-03-27T20:15:58.170Z,8.58
2019-03-27T20:18:24.900Z,8.70
2019-03-27T20:20:51.336Z,9.33
2019-03-27T20:23:18.021Z,9.75
2019-03-27T20:25:44.835Z,8.93
2019-03-27T20:28:11.334Z,8.60
2019-03-27T20:30:38.044Z,9.20
2019-03-27T20:33:04.648Z,8.83
2019-03-27T20:35:31.325Z,9.05
2019-03-27T20:37:57.860Z,9.85
2019-03-27T20:40:27.504Z,8.58
2019-03-27T20:42:53.192Z,9.40
2019-03-27T20:45:20.141Z,9.05
2019-03-27T20:47:46.837Z,9.60
2019-03-27T20:50:13.590Z,8.75
2019-03-27T20:52:40.164Z,8.83
2019-03-27T20:55:07.039Z,8.63
2019-03-27T20:57:34.048Z,9.68
2019-03-27T21:00:00.665Z,10.10
2019-03-27T21:02:27.170Z,9.73
2019-03-27T21:04:53.622Z,9.13
2019-03-27T21:07:20.278Z,11.15
2019-03-27T21:09:46.845Z,9.73
2019-03-27T21:12:13.254Z,9.73
2019-03-27T21:14:39.760Z,9.10
2019-03-27T21:17:06.516Z,10.00
2019-03-27T21:19:39.973Z,9.98
2019-03-27T21:22:06.668Z,9.23
2019-03-27T21:24:33.355Z,8.83
2019-03-27T21:27:00.043Z,8.80
2019-03-27T21:29:26.643Z,9.40
2019-03-27T21:31:53.281Z,8.83
2019-03-27T21:34:20.178Z,8.85
2019-03-27T21:37:06.751Z,8.78
2019-03-27T21:39:33.560Z,9.03
2019-03-27T21:42:00.586Z,10.20
2019-03-27T21:44:27.249Z,9.73
2019-03-27T21:46:53.837Z,9.15
2019-03-27T21:49:20.508Z,8.68
2019-03-27T21:51:47.279Z,8.80
2019-03-27T21:54:13.868Z,8.18
2019-03-27T21:56:40.431Z,8.73
2019-03-27T21:59:08.087Z,8.33
2019-03-27T22:01:34.560Z,8.98
2019-03-27T22:04:01.058Z,7.97
2019-03-27T22:06:28.519Z,8.88
2019-03-27T22:08:59.051Z,8.75
2019-03-27T22:11:25.556Z,7.05
2019-03-27T22:13:52.081Z,7.95
2019-03-27T22:16:18.638Z,6.85
2019-03-27T22:19:05.059Z,7.72
2019-03-27T22:21:31.757Z,8.40
2019-03-27T22:23:58.171Z,8.78
2019-03-27T22:26:24.869Z,7.80
2019-03-27T22:28:51.395Z,7.83
2019-03-27T22:31:17.821Z,8.13
2019-03-27T22:33:44.285Z,8.25
2019-03-27T22:36:10.880Z,7.25
2019-03-27T22:38:37.219Z,6.62
2019-03-27T22:41:03.754Z,7.08
2019-03-27T22:43:30.393Z,7.28
2019-03-27T22:45:57.048Z,6.05
2019-03-27T22:48:23.740Z,6.67
2019-03-27T22:50:50.248Z,6.10
2019-03-27T22:53:17.061Z,6.62
2019-03-27T22:55:49.620Z,5.65
2019-03-27T22:58:13.108Z,5.90
2019-03-27T23:00:47.309Z,6.20
2019-03-27T23:03:18.663Z,5.72
2019-03-27T23:05:44.219Z,6.08
2019-03-27T23:08:11.989Z,5.25
2019-03-27T23:10:38.510Z,4.83
2019-03-27T23:13:06.941Z,5.28
2019-03-27T23:15:33.743Z,4.80
2019-03-27T23:18:00.393Z,4.85
2019-03-27T23:20:27.073Z,4.17
2019-03-27T23:22:53.640Z,4.75
2019-03-27T23:25:20.127Z,5.00
2019-03-27T23:27:46.780Z,4.17
2019-03-27T23:30:13.782Z,4.70
2019-03-27T23:33:00.360Z,4.65
2019-03-27T23:35:27.041Z,5.30
2019-03-27T23:37:53.894Z,4.10
2019-03-27T23:40:20.526Z,4.33
2019-03-27T23:42:47.175Z,5.05
2019-03-27T23:45:13.889Z,5.08
2019-03-27T23:47:40.700Z,5.17
2019-03-27T23:50:27.260Z,5.00
2019-03-27T23:52:53.750Z,4.55
2019-03-27T23:55:20.283Z,4.67
2019-03-27T23:57:46.834Z,5.22
